Terminal Aerodrome Forecast
Issued by NWS Cleveland, OH

Home | Current Version | Previous Version | Graphics & Text | Print | Product List | Glossary On
Versions: 1 2 3 4 5 6 7 8 9 10 11 12 13 14 15
000
FTUS41 KCLE 271135
TAFERI
TAF
KERI 271135Z 2712/2812 32007KT P6SM SCT020 OVC040
      TEMPO 2712/2714 BKN020 OVC040
     FM272300 27005KT P6SM SCT250
     FM280300 19003KT P6SM SKC=

USA.gov is the U.S. government's official web portal to all federal, state and local government web resources and services.